Time;durP1;ratioP1;P1;durP2;ratioP2;P2;SDS_P1;SDS_P2;PMS_P1;PMS_P2;Temp;Humidity;BMP_temperature;BMP_pressure;BME280_temperature;BME280_humidity;BME280_pressure;Samples;Min_cycle;Max_cycle;Signal;HPM_P1;HPM_P2
2021/05/12 00:00:21;;;;;;;0.93;0.93;;;;;;;8.57;91.37;95009.38;5055528;28;20066;-68
2021/05/12 00:03:07;;;;;;;2.42;1.00;;;;;;;8.55;91.66;95005.47;5045057;28;20056;-68
2021/05/12 00:05:33;;;;;;;1.05;0.90;;;;;;;8.51;91.83;94999.22;5034976;28;20486;-69
2021/05/12 00:07:58;;;;;;;1.17;0.90;;;;;;;8.42;91.76;95007.59;5048520;28;20048;-68
2021/05/12 00:10:24;;;;;;;1.55;1.25;;;;;;;8.39;92.32;94992.41;5043279;28;20045;-69
2021/05/12 00:12:50;;;;;;;2.17;0.90;;;;;;;8.36;91.79;94995.56;5056825;28;20073;-69
2021/05/12 00:15:20;;;;;;;1.40;1.17;;;;;;;8.41;91.72;94995.53;5039030;28;20068;-69
2021/05/12 00:17:48;;;;;;;1.42;1.15;;;;;;;8.35;92.33;94996.59;5046476;28;20071;-69
2021/05/12 00:20:20;;;;;;;0.98;0.98;;;;;;;8.30;92.15;94993.97;5051036;28;20045;-69
2021/05/12 00:25:20;;;;;;;2.15;1.02;;;;;;;8.29;92.89;94993.22;5050191;28;20041;-68
2021/05/12 00:27:46;;;;;;;1.35;1.20;;;;;;;8.26;92.18;94982.47;5050425;28;20040;-68
2021/05/12 00:30:18;;;;;;;1.00;1.00;;;;;;;8.18;92.30;94985.66;5055389;28;20055;-69
2021/05/12 00:32:45;;;;;;;1.20;1.13;;;;;;;8.14;92.52;94985.38;5069907;28;20044;-69
2021/05/12 00:35:11;;;;;;;1.80;1.30;;;;;;;8.11;92.90;94981.44;5031599;28;20044;-69
2021/05/12 00:37:38;;;;;;;1.05;1.00;;;;;;;8.08;92.54;94971.50;5041479;28;20056;-69
2021/05/12 00:40:06;;;;;;;1.60;1.13;;;;;;;8.11;93.02;94981.44;5050125;28;20059;-69
2021/05/12 00:42:32;;;;;;;1.20;1.10;;;;;;;8.12;92.84;94974.38;5045031;28;20041;-69
2021/05/12 00:44:59;;;;;;;1.38;1.23;;;;;;;8.09;92.74;94978.31;5036111;28;20041;-69
2021/05/12 00:47:26;;;;;;;1.27;1.17;;;;;;;8.06;93.00;94972.81;5048613;28;20030;-69
2021/05/12 00:49:52;;;;;;;2.63;1.00;;;;;;;8.06;92.35;94972.81;5048243;28;20037;-69
2021/05/12 00:52:19;;;;;;;1.42;1.20;;;;;;;7.98;93.37;94971.53;5054973;28;20485;-69
2021/05/12 00:54:45;;;;;;;1.98;1.10;;;;;;;8.03;93.10;94971.53;5056492;28;20406;-69
2021/05/12 00:57:10;;;;;;;2.47;1.25;;;;;;;8.03;92.96;94968.09;5045561;28;20040;-69
2021/05/12 00:59:36;;;;;;;0.75;0.75;;;;;;;8.04;92.43;94965.22;5063921;28;20029;-69
2021/05/12 01:02:03;;;;;;;1.10;0.80;;;;;;;7.95;92.49;94966.81;5039150;28;20041;-69
2021/05/12 01:04:28;;;;;;;1.10;0.80;;;;;;;7.93;93.11;94958.44;5030610;28;20038;-69
2021/05/12 01:06:54;;;;;;;0.80;0.80;;;;;;;7.91;92.78;94957.91;5045592;28;20110;-69
2021/05/12 01:09:20;;;;;;;0.70;0.70;;;;;;;7.95;92.91;94966.81;5046257;28;20047;-69
2021/05/12 01:11:45;;;;;;;1.30;1.00;;;;;;;7.90;93.22;94962.38;5041901;28;20036;-69
2021/05/12 01:14:11;;;;;;;0.85;0.85;;;;;;;7.93;92.96;94968.91;5045849;28;20049;-69
2021/05/12 01:16:37;;;;;;;1.52;1.08;;;;;;;7.90;93.05;94959.78;5043732;28;20151;-69
2021/05/12 01:19:03;;;;;;;1.27;1.00;;;;;;;7.90;93.01;94969.44;5038615;28;20085;-69
2021/05/12 01:21:28;;;;;;;2.47;0.80;;;;;;;7.92;93.12;94967.34;5051048;28;20037;-69
2021/05/12 01:23:54;;;;;;;2.50;1.33;;;;;;;7.91;92.28;94971.03;5047208;28;20419;-69
2021/05/12 01:26:22;;;;;;;1.65;0.88;;;;;;;7.87;92.82;94975.22;5047024;28;20060;-69
2021/05/12 01:28:51;;;;;;;0.98;0.98;;;;;;;7.82;92.99;94977.88;5048545;28;20068;-68
2021/05/12 01:31:51;;;;;;;0.70;0.70;;;;;;;7.82;92.61;94983.09;5053933;28;20498;-69
2021/05/12 01:34:19;;;;;;;0.90;0.80;;;;;;;7.80;93.47;94986.75;5047323;28;20057;-69
2021/05/12 01:36:46;;;;;;;1.38;0.90;;;;;;;7.82;94.06;94985.72;5051208;28;20460;-69
2021/05/12 01:39:13;;;;;;;0.80;0.80;;;;;;;7.84;93.76;94986.22;5040796;28;20060;-69
2021/05/12 01:41:39;;;;;;;0.77;0.77;;;;;;;7.85;93.51;94985.19;5034321;28;20536;-69
2021/05/12 01:44:09;;;;;;;0.80;0.80;;;;;;;7.82;92.86;94993.59;5041941;28;20037;-69
2021/05/12 01:46:39;;;;;;;1.33;0.85;;;;;;;7.78;93.30;94994.09;5048201;28;20446;-69
2021/05/12 01:49:05;;;;;;;0.77;0.77;;;;;;;7.78;93.78;94988.84;5047105;28;20033;-69
2021/05/12 01:51:31;;;;;;;1.27;0.60;;;;;;;7.75;93.38;94994.63;5048833;28;20392;-69
2021/05/12 01:53:57;;;;;;;0.85;0.70;;;;;;;7.77;93.04;94992.53;5053225;28;20040;-69
2021/05/12 01:56:23;;;;;;;0.85;0.85;;;;;;;7.80;93.12;94996.44;5044247;28;20052;-69
2021/05/12 01:58:48;;;;;;;2.08;1.05;;;;;;;7.77;93.74;94992.53;5035304;28;20068;-69
2021/05/12 02:01:14;;;;;;;1.33;0.68;;;;;;;7.75;93.58;94994.63;5060321;28;20127;-69
2021/05/12 02:03:39;;;;;;;0.85;0.85;;;;;;;7.77;93.56;94987.28;5051196;28;20041;-69
2021/05/12 02:06:05;;;;;;;0.93;0.80;;;;;;;7.79;93.80;94994.88;5056954;28;20456;-69
2021/05/12 02:08:31;;;;;;;1.83;0.70;;;;;;;7.72;92.95;94994.38;5055377;28;20045;-69
2021/05/12 02:11:00;;;;;;;0.80;0.70;;;;;;;7.72;93.31;94989.91;5056185;28;20049;-69
2021/05/12 02:13:29;;;;;;;1.40;1.08;;;;;;;7.71;94.37;94988.31;5048978;28;20045;-69
2021/05/12 02:15:55;;;;;;;2.25;0.85;;;;;;;7.72;93.33;94989.91;5053429;28;20056;-69
2021/05/12 02:18:21;;;;;;;1.58;0.63;;;;;;;7.67;93.99;94987.31;5056919;28;20049;-69
2021/05/12 02:20:47;;;;;;;1.15;1.00;;;;;;;7.67;93.84;94984.69;5040154;28;20044;-69
2021/05/12 02:23:15;;;;;;;0.75;0.75;;;;;;;7.71;93.15;94977.84;5042610;28;20053;-69
2021/05/12 02:25:42;;;;;;;0.70;0.70;;;;;;;7.64;94.11;94982.56;5038900;28;20045;-69
2021/05/12 02:28:08;;;;;;;1.65;0.82;;;;;;;7.64;93.61;94982.56;5069215;28;20119;-69
2021/05/12 02:30:35;;;;;;;0.75;0.73;;;;;;;7.66;94.47;94975.25;5056129;28;20034;-69
2021/05/12 02:33:00;;;;;;;1.38;0.90;;;;;;;7.62;93.87;94979.44;5053515;28;20056;-69
2021/05/12 02:35:26;;;;;;;2.35;0.85;;;;;;;7.67;93.85;94982.06;5047603;28;20044;-69
2021/05/12 02:37:52;;;;;;;0.98;0.80;;;;;;;7.69;93.84;94979.19;5066419;28;20041;-69
2021/05/12 02:40:20;;;;;;;0.68;0.68;;;;;;;7.66;94.35;94980.50;5048227;28;20056;-69
2021/05/12 02:42:47;;;;;;;1.00;0.90;;;;;;;7.66;93.37;94980.50;5045172;28;20044;-69
2021/05/12 02:45:13;;;;;;;1.48;0.70;;;;;;;7.67;93.10;94981.25;5034031;28;20510;-69
2021/05/12 02:47:39;;;;;;;3.20;0.98;;;;;;;7.60;93.89;94981.53;5042187;28;20044;-68
2021/05/12 02:50:08;;;;;;;3.85;1.10;;;;;;;7.63;94.04;94981.03;5042264;28;20111;-69
2021/05/12 02:52:34;;;;;;;0.70;0.70;;;;;;;7.62;93.72;94984.69;5036594;28;20102;-69
2021/05/12 02:54:59;;;;;;;0.82;0.82;;;;;;;7.67;93.51;94982.06;5058105;28;20056;-68
2021/05/12 02:57:25;;;;;;;3.70;0.90;;;;;;;7.61;93.48;94989.16;5060506;28;20425;-69
2021/05/12 02:59:51;;;;;;;2.83;0.90;;;;;;;7.63;93.57;94991.50;5038462;28;20044;-69
2021/05/12 03:02:17;;;;;;;1.17;0.80;;;;;;;7.56;93.67;94996.22;5039293;28;20040;-69
2021/05/12 03:04:42;;;;;;;3.95;0.98;;;;;;;7.60;93.55;94986.75;5050196;28;20037;-69
2021/05/12 03:07:08;;;;;;;1.15;0.70;;;;;;;7.56;93.48;94994.38;5057188;28;20131;-68
2021/05/12 03:09:34;;;;;;;1.25;0.95;;;;;;;7.56;94.45;94996.22;5037277;28;20040;-69
2021/05/12 03:11:59;;;;;;;1.17;0.65;;;;;;;7.53;95.01;94994.09;5051206;28;20094;-69
2021/05/12 03:14:25;;;;;;;0.95;0.95;;;;;;;7.57;93.38;94987.28;5051714;28;20047;-69
2021/05/12 03:16:50;;;;;;;2.35;0.98;;;;;;;7.56;93.62;94985.75;5045301;28;20112;-69
2021/05/12 03:19:16;;;;;;;3.95;0.90;;;;;;;7.53;93.87;94975.75;5040281;28;20045;-68
2021/05/12 03:21:42;;;;;;;1.90;0.93;;;;;;;7.51;94.01;94988.34;5058614;28;20041;-69
2021/05/12 03:24:09;;;;;;;1.65;1.02;;;;;;;7.49;93.77;94979.97;5033333;28;20551;-69
2021/05/12 03:26:35;;;;;;;0.90;0.90;;;;;;;7.51;93.72;94983.13;5048499;28;20040;-69
2021/05/12 03:29:01;;;;;;;0.73;0.60;;;;;;;7.54;93.24;94982.59;5043357;28;20049;-69
2021/05/12 03:31:27;;;;;;;1.40;1.00;;;;;;;7.49;93.90;94985.22;5045303;28;20037;-69
2021/05/12 03:33:55;;;;;;;0.73;0.73;;;;;;;7.40;94.67;94988.34;5045680;28;20387;-68
2021/05/12 03:36:22;;;;;;;0.80;0.80;;;;;;;7.46;94.08;94992.53;5062593;28;20044;-69
2021/05/12 03:38:48;;;;;;;1.08;0.80;;;;;;;7.48;94.39;94994.88;5058905;28;20040;-69
2021/05/12 03:41:14;;;;;;;0.77;0.77;;;;;;;7.48;94.46;94991.50;5039905;28;20041;-69
2021/05/12 03:43:39;;;;;;;1.45;0.65;;;;;;;7.45;93.96;94990.19;5065547;28;20041;-69
2021/05/12 03:46:05;;;;;;;0.60;0.60;;;;;;;7.46;94.18;94992.53;5054519;28;20045;-69
2021/05/12 03:48:31;;;;;;;0.80;0.80;;;;;;;7.39;94.35;94996.47;5040464;28;20033;-69
2021/05/12 03:50:57;;;;;;;1.02;1.00;;;;;;;7.37;94.89;94994.13;5042583;28;20044;-69
2021/05/12 03:53:24;;;;;;;1.52;0.73;;;;;;;7.41;94.31;95004.84;5050649;28;20114;-69
2021/05/12 03:55:50;;;;;;;0.77;0.68;;;;;;;7.38;93.98;95000.13;5047134;28;20412;-69
2021/05/12 03:58:16;;;;;;;0.80;0.80;;;;;;;7.44;93.50;95005.13;5051076;28;20112;-69
2021/05/12 04:00:41;;;;;;;2.33;0.88;;;;;;;7.40;94.78;95009.28;5048140;28;20042;-69
2021/05/12 04:03:07;;;;;;;0.77;0.75;;;;;;;7.41;94.06;95005.63;5056728;28;20041;-69
2021/05/12 04:05:33;;;;;;;0.80;0.80;;;;;;;7.39;94.01;95018.19;5040729;28;20072;-69
2021/05/12 04:07:58;;;;;;;3.08;0.90;;;;;;;7.37;94.70;95003.78;5051403;28;20056;-69
2021/05/12 04:10:24;;;;;;;1.20;0.93;;;;;;;7.34;94.38;95020.81;5049497;28;20041;-69
2021/05/12 04:12:50;;;;;;;1.15;0.98;;;;;;;7.27;95.04;95015.06;5049704;28;20093;-69
2021/05/12 04:15:16;;;;;;;0.90;0.90;;;;;;;7.27;94.90;95015.06;5050227;28;20327;-69
2021/05/12 04:17:42;;;;;;;1.08;0.80;;;;;;;7.27;95.14;95017.66;5052609;28;20040;-68
2021/05/12 04:20:14;;;;;;;0.63;0.63;;;;;;;7.27;94.73;95020.28;5032993;28;20056;-68
2021/05/12 04:22:41;;;;;;;1.42;0.70;;;;;;;7.28;95.31;95016.59;5039531;28;20106;-69
2021/05/12 04:25:10;;;;;;;0.60;0.60;;;;;;;7.28;94.65;95011.38;5047472;28;20087;-69
2021/05/12 04:27:36;;;;;;;1.15;0.77;;;;;;;7.31;95.36;95016.06;5046995;28;20056;-69
2021/05/12 04:30:04;;;;;;;1.17;0.60;;;;;;;7.36;94.85;95002.22;5071742;28;20119;-68
2021/05/12 04:32:29;;;;;;;1.00;0.50;;;;;;;7.33;94.82;95013.22;5053324;28;20064;-69
2021/05/12 04:34:55;;;;;;;4.40;0.70;;;;;;;7.33;95.28;95014.00;5042013;28;20046;-69
2021/05/12 04:37:20;;;;;;;2.95;0.65;;;;;;;7.42;94.79;95001.94;5057594;28;20489;-69
2021/05/12 04:39:46;;;;;;;0.65;0.65;;;;;;;7.35;94.41;94998.03;5037147;28;20045;-69
2021/05/12 04:42:11;;;;;;;0.85;0.70;;;;;;;7.30;94.83;94998.81;5032323;28;20095;-68
2021/05/12 04:44:37;;;;;;;0.88;0.88;;;;;;;7.33;94.90;95006.16;5046091;28;20033;-69
2021/05/12 04:47:02;;;;;;;0.57;0.57;;;;;;;7.35;94.51;94988.34;5037331;28;20041;-69
2021/05/12 04:49:28;;;;;;;0.90;0.60;;;;;;;7.35;94.17;94996.19;5031650;28;20435;-69
2021/05/12 04:51:54;;;;;;;1.40;0.77;;;;;;;7.33;94.22;94997.53;5044308;28;20049;-69
2021/05/12 04:54:19;;;;;;;0.65;0.57;;;;;;;7.34;94.26;94999.88;5038375;28;20076;-69
2021/05/12 04:56:45;;;;;;;1.13;0.70;;;;;;;7.38;94.41;95003.50;5032643;28;20041;-69
2021/05/12 04:59:10;;;;;;;0.68;0.60;;;;;;;7.35;94.62;95004.03;5036265;28;20045;-69
2021/05/12 05:01:36;;;;;;;0.65;0.65;;;;;;;7.39;94.76;94999.84;5039133;28;20041;-68
2021/05/12 05:04:02;;;;;;;0.75;0.60;;;;;;;7.42;93.95;95006.41;5044779;28;20065;-69
2021/05/12 05:06:28;;;;;;;0.50;0.50;;;;;;;7.37;94.66;94999.34;5042850;28;20319;-68
2021/05/12 05:08:53;;;;;;;0.60;0.60;;;;;;;7.40;94.97;94998.81;5051448;28;20032;-69
2021/05/12 05:11:19;;;;;;;1.63;0.70;;;;;;;7.44;94.88;94999.88;5069661;28;20128;-69
2021/05/12 05:13:45;;;;;;;0.70;0.70;;;;;;;7.45;94.80;94996.19;5039364;28;20045;-68
2021/05/12 05:16:11;;;;;;;0.55;0.55;;;;;;;7.46;94.57;95002.22;5040492;28;20418;-69
2021/05/12 05:18:38;;;;;;;0.85;0.63;;;;;;;7.45;94.92;95000.66;5058499;28;20076;-69
2021/05/12 05:21:06;;;;;;;1.38;0.80;;;;;;;7.52;94.29;95008.25;5047413;28;20057;-69
2021/05/12 05:23:35;;;;;;;0.82;0.63;;;;;;;7.49;94.31;94995.69;5047173;28;20395;-69
2021/05/12 05:26:02;;;;;;;0.80;0.73;;;;;;;7.51;94.40;94998.81;5037081;28;20045;-69
2021/05/12 05:28:28;;;;;;;0.98;0.80;;;;;;;7.49;94.04;95000.94;5037866;28;20041;-70
2021/05/12 05:30:53;;;;;;;0.98;0.70;;;;;;;7.51;93.54;95004.06;5042664;28;20060;-70
2021/05/12 05:33:19;;;;;;;0.82;0.82;;;;;;;7.52;93.80;95005.63;5034975;28;20530;-69
2021/05/12 05:35:44;;;;;;;1.83;0.63;;;;;;;7.60;94.07;95007.72;5035894;28;20045;-70
2021/05/12 05:38:10;;;;;;;1.27;0.50;;;;;;;7.52;94.88;95016.09;5039251;28;20041;-69
2021/05/12 05:40:35;;;;;;;1.38;0.70;;;;;;;7.57;94.50;95018.72;5037825;28;20553;-70
2021/05/12 05:43:03;;;;;;;0.50;0.50;;;;;;;7.58;94.82;95009.81;5044768;28;20037;-69
2021/05/12 05:45:29;;;;;;;0.50;0.50;;;;;;;7.59;94.20;95011.41;5042307;28;20045;-70
2021/05/12 05:47:54;;;;;;;1.10;0.70;;;;;;;7.60;94.53;95013.75;5043432;28;20057;-70
2021/05/12 05:50:21;;;;;;;1.00;0.60;;;;;;;7.58;94.11;95009.81;5033114;28;20049;-69
2021/05/12 05:52:47;;;;;;;1.58;0.60;;;;;;;7.67;94.15;95013.50;5070808;28;20063;-70
2021/05/12 05:55:12;;;;;;;1.27;0.60;;;;;;;7.64;95.00;95024.47;5046412;28;20045;-69
2021/05/12 05:57:38;;;;;;;0.60;0.60;;;;;;;7.64;94.83;95019.22;5043865;28;20053;-70
2021/05/12 06:00:06;;;;;;;2.53;0.77;;;;;;;7.71;94.26;95030.22;5047397;28;20036;-70
2021/05/12 06:02:31;;;;;;;1.45;0.50;;;;;;;7.79;94.50;95021.84;5030827;28;20049;-70
2021/05/12 06:04:57;;;;;;;0.40;0.40;;;;;;;7.82;94.31;95025.00;5039994;28;20359;-69
2021/05/12 06:07:22;;;;;;;1.52;0.88;;;;;;;7.84;94.77;95022.91;5047291;28;20045;-70
2021/05/12 06:09:48;;;;;;;0.65;0.65;;;;;;;7.82;94.68;95025.00;5059067;28;20075;-69
2021/05/12 06:12:13;;;;;;;1.13;0.60;;;;;;;7.88;93.99;95023.94;5070466;28;20052;-69
2021/05/12 06:14:39;;;;;;;1.10;0.80;;;;;;;7.91;94.81;95031.28;5046536;28;20454;-70
2021/05/12 06:17:04;;;;;;;1.80;0.70;;;;;;;7.97;94.46;95027.59;5041350;28;20069;-69
2021/05/12 06:19:30;;;;;;;0.70;0.70;;;;;;;7.93;93.75;95022.13;5048686;28;20045;-70
2021/05/12 06:21:55;;;;;;;0.40;0.40;;;;;;;7.97;93.81;95022.34;5064055;28;20040;-70
2021/05/12 06:24:21;;;;;;;1.27;0.60;;;;;;;7.97;93.39;95032.84;5061013;28;20079;-69
2021/05/12 06:26:48;;;;;;;1.10;0.82;;;;;;;7.97;94.06;95028.41;5039599;28;20487;-70
2021/05/12 06:29:14;;;;;;;0.65;0.65;;;;;;;7.95;94.45;95024.47;5048957;28;20116;-70
2021/05/12 06:31:39;;;;;;;4.10;0.55;;;;;;;7.92;93.85;95030.25;5065230;28;20147;-70
2021/05/12 06:34:05;;;;;;;0.68;0.68;;;;;;;8.01;94.28;95028.66;5058184;28;20462;-70
2021/05/12 06:36:30;;;;;;;0.98;0.90;;;;;;;8.01;94.56;95033.88;5046406;28;20515;-70
2021/05/12 06:38:56;;;;;;;1.70;0.70;;;;;;;8.00;94.43;95032.31;5046600;28;20047;-70
2021/05/12 06:41:22;;;;;;;0.52;0.52;;;;;;;8.01;94.17;95023.41;5052464;28;20040;-70
2021/05/12 06:43:49;;;;;;;0.98;0.68;;;;;;;8.00;94.91;95021.81;5053556;28;20563;-70
2021/05/12 06:46:15;;;;;;;5.90;0.88;;;;;;;7.96;94.70;95018.19;5048990;28;20403;-69
2021/05/12 06:48:42;;;;;;;3.10;0.90;;;;;;;8.06;94.70;95020.78;5052446;28;20518;-70
2021/05/12 06:51:07;;;;;;;1.38;0.70;;;;;;;8.08;94.97;95018.69;5055336;28;20090;-70
2021/05/12 06:53:34;;;;;;;2.78;0.75;;;;;;;8.06;94.23;95023.41;5053049;28;20040;-70
2021/05/12 06:56:03;;;;;;;1.95;0.90;;;;;;;8.09;94.42;95020.25;5054715;28;20129;-70
2021/05/12 06:58:28;;;;;;;0.90;0.90;;;;;;;8.12;94.46;95019.72;5052362;28;20037;-70
2021/05/12 07:00:54;;;;;;;1.13;1.00;;;;;;;8.07;94.69;95024.97;5052525;28;20577;-70
2021/05/12 07:03:24;;;;;;;2.03;0.80;;;;;;;8.23;94.87;95025.75;5085594;28;20053;-70
2021/05/12 07:05:52;;;;;;;1.65;1.23;;;;;;;8.24;94.24;95027.28;5043404;28;20100;-70
2021/05/12 07:08:18;;;;;;;2.03;1.10;;;;;;;8.24;95.07;95010.78;5049694;28;20036;-69
2021/05/12 07:10:44;;;;;;;1.58;1.17;;;;;;;8.35;95.61;95014.94;5052310;28;20033;-70
2021/05/12 07:13:09;;;;;;;1.30;1.20;;;;;;;8.41;94.49;95015.72;5052376;28;20048;-69
2021/05/12 07:15:35;;;;;;;1.40;1.27;;;;;;;8.45;94.08;95012.31;5052689;28;20053;-69
2021/05/12 07:18:01;;;;;;;2.28;1.40;;;;;;;8.56;94.73;95022.78;5055044;28;20064;-70
2021/05/12 07:20:26;;;;;;;4.40;1.70;;;;;;;8.62;95.16;95011.19;5049493;28;20045;-70
2021/05/12 07:22:52;;;;;;;2.08;1.55;;;;;;;8.70;94.27;95015.13;5073033;28;20088;-69
2021/05/12 07:25:18;;;;;;;4.82;2.00;;;;;;;8.69;94.92;95016.16;5059825;28;20045;-69
2021/05/12 07:27:44;;;;;;;2.72;1.70;;;;;;;8.66;94.79;95022.72;5042975;28;20037;-69
2021/05/12 07:30:10;;;;;;;4.32;2.45;;;;;;;8.77;95.22;95013.78;5045806;28;20426;-69
2021/05/12 07:32:36;;;;;;;3.70;2.28;;;;;;;8.77;95.77;95018.25;5055498;28;20045;-69
2021/05/12 07:35:02;;;;;;;3.42;2.33;;;;;;;8.82;95.47;95016.38;5042161;28;20068;-69
2021/05/12 07:37:27;;;;;;;3.50;2.35;;;;;;;8.96;95.37;95013.16;5061034;28;20388;-69
2021/05/12 07:39:53;;;;;;;3.00;2.30;;;;;;;8.92;94.54;95010.31;5047079;28;20088;-70
2021/05/12 07:42:20;;;;;;;2.67;2.25;;;;;;;8.94;93.78;95008.19;5055925;28;20139;-72
2021/05/12 07:44:48;;;;;;;3.30;2.00;;;;;;;9.00;94.43;95011.56;5049711;28;20036;-69
2021/05/12 07:47:14;;;;;;;2.92;2.33;;;;;;;9.04;94.65;95007.34;5043379;28;20036;-69
2021/05/12 07:49:40;;;;;;;4.85;1.85;;;;;;;9.10;93.72;95005.47;5052763;28;20039;-69
2021/05/12 07:52:13;;;;;;;4.90;2.25;;;;;;;9.00;93.61;95006.31;5052479;28;20326;-70
2021/05/12 07:54:43;;;;;;;3.28;2.00;;;;;;;9.12;93.93;94998.91;5052231;28;20049;-69
2021/05/12 07:57:09;;;;;;;3.63;2.10;;;;;;;9.12;93.77;94998.91;5049353;28;20044;-70
2021/05/12 07:59:35;;;;;;;2.92;1.75;;;;;;;9.01;93.06;95000.00;5043950;28;20037;-70
2021/05/12 08:02:04;;;;;;;3.40;2.25;;;;;;;8.96;95.31;95005.28;5045950;28;20037;-69
2021/05/12 08:04:34;;;;;;;2.83;2.15;;;;;;;9.03;94.32;95011.00;5043233;28;20059;-69
2021/05/12 08:07:00;;;;;;;4.45;2.10;;;;;;;8.95;93.82;95008.94;5047963;28;20045;-68
2021/05/12 08:09:26;;;;;;;4.28;2.10;;;;;;;9.05;94.11;95003.66;5048902;28;20053;-69
2021/05/12 08:11:52;;;;;;;2.20;2.00;;;;;;;9.10;94.13;95011.50;5051301;28;20052;-70
2021/05/12 08:14:18;;;;;;;2.53;2.10;;;;;;;9.08;93.10;95012.81;5051791;28;20448;-69
2021/05/12 08:16:44;;;;;;;2.35;1.88;;;;;;;8.98;93.80;95018.94;5047288;28;20119;-69
2021/05/12 08:19:11;;;;;;;4.57;2.33;;;;;;;8.95;95.27;95019.44;5049188;28;20529;-69
2021/05/12 08:21:37;;;;;;;3.30;2.13;;;;;;;8.97;94.19;95022.59;5048953;28;20045;-69
2021/05/12 08:24:03;;;;;;;5.45;2.67;;;;;;;9.08;94.54;95021.50;5056999;28;20395;-69
2021/05/12 08:26:30;;;;;;;5.40;2.20;;;;;;;9.28;93.77;95011.91;5053201;28;20482;-70
2021/05/12 08:28:58;;;;;;;2.88;2.15;;;;;;;9.25;94.24;95008.00;5049614;28;20057;-69
2021/05/12 08:31:24;;;;;;;5.72;2.33;;;;;;;9.19;93.75;95009.09;5043153;28;20040;-69
2021/05/12 08:33:50;;;;;;;2.45;2.10;;;;;;;9.19;93.01;95009.88;5047549;28;20047;-69
2021/05/12 08:36:15;;;;;;;4.00;2.10;;;;;;;9.21;94.02;95011.44;5045862;28;20045;-69
2021/05/12 08:38:46;;;;;;;6.25;2.50;;;;;;;9.24;94.01;95010.88;5046837;28;20045;-69
2021/05/12 08:41:16;;;;;;;4.18;2.22;;;;;;;9.23;93.21;95004.09;5050061;28;20426;-70
2021/05/12 08:43:42;;;;;;;4.53;2.17;;;;;;;9.24;93.39;95005.63;5053189;28;20056;-69
2021/05/12 08:46:09;;;;;;;3.67;2.40;;;;;;;9.26;93.86;95008.78;5056413;28;20040;-69
2021/05/12 08:48:39;;;;;;;3.60;2.30;;;;;;;9.32;93.49;95000.63;5043207;28;20051;-70
2021/05/12 08:51:07;;;;;;;4.55;2.40;;;;;;;9.33;93.56;94998.75;5051926;28;20044;-70
2021/05/12 08:53:33;;;;;;;3.83;2.72;;;;;;;9.38;94.00;94996.09;5061281;28;20406;-70
2021/05/12 08:56:00;;;;;;;6.05;2.40;;;;;;;9.45;93.17;95001.84;5041790;28;20041;-69
2021/05/12 08:58:26;;;;;;;5.30;2.50;;;;;;;9.32;93.74;94999.81;5040750;28;20048;-69
2021/05/12 09:00:53;;;;;;;3.45;2.47;;;;;;;9.32;93.39;95012.94;5046271;28;20156;-69
2021/05/12 09:03:19;;;;;;;2.28;1.80;;;;;;;9.23;92.24;95009.34;5058538;28;20041;-70
2021/05/12 09:05:46;;;;;;;6.18;2.05;;;;;;;9.16;93.38;95005.16;5047949;28;20045;-70
2021/05/12 09:08:11;;;;;;;1.98;1.52;;;;;;;9.18;92.75;95008.31;5038632;28;20511;-70
2021/05/12 09:10:37;;;;;;;1.17;1.17;;;;;;;8.93;92.02;95005.81;5047717;28;20136;-70
2021/05/12 09:13:03;;;;;;;5.50;1.20;;;;;;;8.74;93.74;95003.03;5047664;28;20072;-70
2021/05/12 09:15:30;;;;;;;1.02;0.95;;;;;;;8.66;93.36;95007.00;5044430;28;20445;-70
2021/05/12 09:17:57;;;;;;;1.30;1.20;;;;;;;8.73;94.11;94999.63;5046134;28;20136;-70
2021/05/12 09:20:42;;;;;;;0.82;0.82;;;;;;;8.84;92.60;95003.75;5041175;28;20110;-70
2021/05/12 09:23:17;;;;;;;;;;;;;;;8.70;92.63;95008.03;5037521;28;20037;-70
2021/05/12 09:25:57;;;;;;;1.20;0.88;;;;;;;8.67;93.55;95011.19;5066055;28;20302;-70
2021/05/12 09:28:28;;;;;;;3.03;1.00;;;;;;;8.70;93.84;95013.28;5032669;28;21587;-70
2021/05/12 09:31:15;;;;;;;1.00;0.90;;;;;;;8.60;93.50;95013.31;5039996;28;20337;-71
2021/05/12 09:33:43;;;;;;;0.88;0.88;;;;;;;8.58;92.73;95010.97;5040440;28;20045;-69
2021/05/12 09:36:24;;;;;;;2.42;1.20;;;;;;;8.62;94.07;95005.97;5040264;28;20049;-71
2021/05/12 09:38:53;;;;;;;2.20;1.08;;;;;;;8.68;92.59;95015.41;5035451;28;20053;-71
2021/05/12 09:41:19;;;;;;;0.80;0.80;;;;;;;8.70;91.94;95013.28;5037811;28;20538;-70
2021/05/12 09:43:50;;;;;;;1.17;1.08;;;;;;;8.64;93.61;95014.34;5031418;28;20056;-69
2021/05/12 09:46:32;;;;;;;2.50;1.00;;;;;;;8.55;92.73;95015.94;5036725;28;20046;-70
2021/05/12 09:49:00;;;;;;;1.63;1.00;;;;;;;8.58;93.10;95004.94;5052164;28;20041;-70
2021/05/12 09:51:28;;;;;;;2.05;1.20;;;;;;;8.56;93.27;95009.66;5040925;28;20045;-70
2021/05/12 09:54:10;;;;;;;1.30;1.20;;;;;;;8.53;93.23;95007.59;5037303;28;20041;-70
2021/05/12 09:57:05;;;;;;;1.27;1.00;;;;;;;8.59;92.72;95006.50;5032805;28;20095;-70
2021/05/12 09:59:34;;;;;;;1.25;0.85;;;;;;;8.48;92.16;95005.75;5030681;28;20056;-70
2021/05/12 10:02:02;;;;;;;1.92;1.20;;;;;;;8.59;93.25;94998.63;5035965;28;20033;-69
2021/05/12 10:04:45;;;;;;;1.08;1.08;;;;;;;8.58;92.36;95004.94;5038546;28;20060;-70
2021/05/12 10:07:19;;;;;;;1.33;1.20;;;;;;;8.66;93.91;95001.75;5035323;28;20072;-69
2021/05/12 10:09:46;;;;;;;2.50;1.30;;;;;;;8.73;93.27;94997.00;5032902;28;20368;-70
2021/05/12 10:12:23;;;;;;;4.25;1.48;;;;;;;8.75;94.63;94994.91;5034260;28;20666;-69
2021/05/12 10:14:57;;;;;;;2.13;1.25;;;;;;;8.76;93.67;95001.69;5038415;28;20036;-70
2021/05/12 10:17:24;;;;;;;1.40;1.30;;;;;;;8.79;93.40;95000.38;5038240;28;20403;-70
2021/05/12 10:19:50;;;;;;;5.05;1.23;;;;;;;8.76;93.96;95006.94;5038927;28;20200;-70
2021/05/12 10:22:17;;;;;;;1.60;1.42;;;;;;;8.79;93.57;94998.56;5037498;28;20128;-70
2021/05/12 10:24:49;;;;;;;2.72;1.65;;;;;;;8.81;93.48;94999.06;5045302;28;20041;-69
2021/05/12 10:27:28;;;;;;;3.45;1.60;;;;;;;8.72;93.33;94995.44;5047720;28;20036;-69
2021/05/12 10:29:57;;;;;;;2.10;1.40;;;;;;;8.76;93.35;94996.44;5054243;28;20041;-69
2021/05/12 10:32:25;;;;;;;2.25;1.50;;;;;;;8.78;94.25;94994.34;5052791;28;20041;-69
2021/05/12 10:35:05;;;;;;;2.28;1.40;;;;;;;8.80;94.23;95005.34;5049897;28;20041;-69
2021/05/12 10:37:34;;;;;;;1.55;1.40;;;;;;;8.87;93.24;94999.03;5051356;28;20037;-69
2021/05/12 10:40:20;;;;;;;2.15;1.40;;;;;;;8.78;93.13;94999.59;5049007;28;20083;-69
2021/05/12 10:45:37;;;;;;;1.42;1.30;;;;;;;8.75;92.66;95009.84;5044967;28;20502;-70
2021/05/12 10:48:04;;;;;;;1.63;1.40;;;;;;;8.72;92.49;95011.19;5049034;28;20441;-70
2021/05/12 10:50:44;;;;;;;7.72;1.50;;;;;;;8.73;93.16;95007.47;5049528;28;20099;-69
2021/05/12 10:53:24;;;;;;;5.25;1.42;;;;;;;8.72;93.29;95016.44;5046719;28;20116;-70
2021/05/12 10:55:56;;;;;;;1.40;1.30;;;;;;;8.79;93.62;95011.69;5045715;28;20108;-69
2021/05/12 10:58:23;;;;;;;1.50;1.40;;;;;;;8.83;93.84;95002.22;5034065;28;20065;-70
2021/05/12 11:00:56;;;;;;;1.80;1.50;;;;;;;9.03;93.46;95005.75;5045330;28;20040;-69
2021/05/12 11:03:23;;;;;;;1.30;1.20;;;;;;;8.92;93.04;95005.06;5038246;28;20044;-69
2021/05/12 11:05:52;;;;;;;1.40;1.30;;;;;;;8.87;92.69;95006.91;5044605;28;20040;-70
2021/05/12 11:08:21;;;;;;;2.38;1.58;;;;;;;8.81;94.81;94999.06;5051116;28;20509;-69
2021/05/12 11:10:59;;;;;;;1.50;1.40;;;;;;;8.89;93.67;95004.78;5055205;28;20047;-70
2021/05/12 11:13:31;;;;;;;4.53;1.80;;;;;;;8.95;93.72;94993.22;5042646;28;20038;-69
2021/05/12 11:15:58;;;;;;;1.40;1.30;;;;;;;8.88;91.60;95003.22;5047173;28;20103;-69
2021/05/12 11:18:45;;;;;;;4.90;1.70;;;;;;;8.90;92.98;95001.13;5037423;28;20049;-70
2021/05/12 11:21:17;;;;;;;1.98;1.60;;;;;;;8.81;93.64;95004.31;5050306;28;20040;-69
2021/05/12 11:24:05;;;;;;;2.92;1.88;;;;;;;8.72;93.60;94994.63;5043819;28;20384;-69
2021/05/12 11:31:09;;;;;;;;;;;;;;;8.78;92.82;94993.59;5049074;28;20163;-69
2021/05/12 11:32:09;;;;;;;6.88;2.08;;;;;;;8.97;92.61;94996.38;5043534;28;20406;-70
2021/05/12 11:34:36;;;;;;;2.03;1.87;;;;;;;9.14;92.78;94996.00;5044690;28;20056;-70
2021/05/12 11:37:06;;;;;;;1.85;1.70;;;;;;;9.13;92.74;94989.19;5046916;28;20041;-68
2021/05/12 11:39:31;;;;;;;1.90;1.70;;;;;;;9.22;91.56;94995.41;5045089;28;20068;-68
2021/05/12 11:41:57;;;;;;;1.63;1.52;;;;;;;9.04;90.87;94991.59;5052245;28;20037;-70
2021/05/12 11:44:22;;;;;;;1.60;1.50;;;;;;;8.98;92.20;94987.44;5037397;28;20713;-71
2021/05/12 11:46:48;;;;;;;1.73;1.55;;;;;;;8.91;91.73;94992.22;5040455;28;20055;-70
2021/05/12 11:49:14;;;;;;;2.28;1.77;;;;;;;8.83;92.07;94996.97;5069555;28;20088;-70
2021/05/12 11:51:43;;;;;;;1.90;1.70;;;;;;;8.72;92.59;94995.44;5049728;28;20044;-71